sensor_id;sensor_type;location;lat;lon;timestamp;P1;durP1;ratioP1;P2;durP2;ratioP2
50337;SDS011;46221;51.178;5.900;2023-05-23T00:01:00;7.53;;;6.22;;
50337;SDS011;46221;51.178;5.900;2023-05-23T00:03:26;8.73;;;6.03;;
50337;SDS011;46221;51.178;5.900;2023-05-23T00:05:54;7.85;;;6.28;;
50337;SDS011;46221;51.178;5.900;2023-05-23T00:08:22;8.88;;;6.35;;
50337;SDS011;46221;51.178;5.900;2023-05-23T00:10:48;7.05;;;6.22;;
50337;SDS011;46221;51.178;5.900;2023-05-23T00:13:14;9.02;;;6.32;;
50337;SDS011;46221;51.178;5.900;2023-05-23T00:15:41;8.73;;;6.43;;
50337;SDS011;46221;51.178;5.900;2023-05-23T00:18:08;8.55;;;6.57;;
50337;SDS011;46221;51.178;5.900;2023-05-23T00:20:36;7.28;;;6.18;;
50337;SDS011;46221;51.178;5.900;2023-05-23T00:23:06;10.13;;;6.22;;
50337;SDS011;46221;51.178;5.900;2023-05-23T00:25:33;8.48;;;6.60;;
50337;SDS011;46221;51.178;5.900;2023-05-23T00:27:59;8.85;;;6.82;;
50337;SDS011;46221;51.178;5.900;2023-05-23T00:30:27;9.63;;;6.50;;
50337;SDS011;46221;51.178;5.900;2023-05-23T00:32:53;8.75;;;6.22;;
50337;SDS011;46221;51.178;5.900;2023-05-23T00:35:20;8.45;;;6.15;;
50337;SDS011;46221;51.178;5.900;2023-05-23T00:37:46;9.90;;;7.85;;
50337;SDS011;46221;51.178;5.900;2023-05-23T00:40:15;9.23;;;6.28;;
50337;SDS011;46221;51.178;5.900;2023-05-23T00:42:41;7.55;;;6.22;;
50337;SDS011;46221;51.178;5.900;2023-05-23T00:45:08;9.18;;;6.82;;
50337;SDS011;46221;51.178;5.900;2023-05-23T00:47:34;8.10;;;6.85;;
50337;SDS011;46221;51.178;5.900;2023-05-23T00:50:01;9.63;;;7.03;;
50337;SDS011;46221;51.178;5.900;2023-05-23T00:52:27;7.95;;;6.72;;
50337;SDS011;46221;51.178;5.900;2023-05-23T00:54:53;9.15;;;6.35;;
50337;SDS011;46221;51.178;5.900;2023-05-23T00:57:20;7.25;;;6.28;;
50337;SDS011;46221;51.178;5.900;2023-05-23T00:59:47;8.02;;;6.60;;
50337;SDS011;46221;51.178;5.900;2023-05-23T01:02:14;9.23;;;6.78;;
50337;SDS011;46221;51.178;5.900;2023-05-23T01:04:40;8.50;;;6.70;;
50337;SDS011;46221;51.178;5.900;2023-05-23T01:07:07;8.35;;;6.75;;
50337;SDS011;46221;51.178;5.900;2023-05-23T01:09:33;8.98;;;7.05;;
50337;SDS011;46221;51.178;5.900;2023-05-23T01:12:07;9.05;;;6.82;;
50337;SDS011;46221;51.178;5.900;2023-05-23T01:14:58;10.02;;;7.63;;
50337;SDS011;46221;51.178;5.900;2023-05-23T01:17:33;9.32;;;6.97;;
50337;SDS011;46221;51.178;5.900;2023-05-23T01:20:11;8.07;;;6.50;;
50337;SDS011;46221;51.178;5.900;2023-05-23T01:28:14;10.50;;;7.43;;
50337;SDS011;46221;51.178;5.900;2023-05-23T01:30:41;10.88;;;6.93;;
50337;SDS011;46221;51.178;5.900;2023-05-23T01:33:09;8.27;;;6.10;;
50337;SDS011;46221;51.178;5.900;2023-05-23T01:35:38;9.73;;;6.57;;
50337;SDS011;46221;51.178;5.900;2023-05-23T01:38:05;8.23;;;6.38;;
50337;SDS011;46221;51.178;5.900;2023-05-23T01:40:32;8.55;;;5.93;;
50337;SDS011;46221;51.178;5.900;2023-05-23T01:42:58;7.72;;;5.97;;
50337;SDS011;46221;51.178;5.900;2023-05-23T01:45:25;8.25;;;6.15;;
50337;SDS011;46221;51.178;5.900;2023-05-23T01:47:52;8.90;;;5.53;;
50337;SDS011;46221;51.178;5.900;2023-05-23T01:50:19;9.80;;;6.32;;
50337;SDS011;46221;51.178;5.900;2023-05-23T01:52:46;8.57;;;5.97;;
50337;SDS011;46221;51.178;5.900;2023-05-23T01:55:13;5.85;;;4.63;;
50337;SDS011;46221;51.178;5.900;2023-05-23T01:57:41;6.90;;;5.28;;
50337;SDS011;46221;51.178;5.900;2023-05-23T02:00:09;7.32;;;5.00;;
50337;SDS011;46221;51.178;5.900;2023-05-23T02:02:37;6.15;;;5.10;;
50337;SDS011;46221;51.178;5.900;2023-05-23T02:05:04;8.63;;;5.03;;
50337;SDS011;46221;51.178;5.900;2023-05-23T02:07:30;6.63;;;4.80;;
50337;SDS011;46221;51.178;5.900;2023-05-23T02:09:57;6.82;;;5.22;;
50337;SDS011;46221;51.178;5.900;2023-05-23T02:12:23;6.93;;;5.15;;
50337;SDS011;46221;51.178;5.900;2023-05-23T02:14:49;6.63;;;5.15;;
50337;SDS011;46221;51.178;5.900;2023-05-23T02:17:18;7.03;;;5.13;;
50337;SDS011;46221;51.178;5.900;2023-05-23T02:19:47;7.45;;;5.22;;
50337;SDS011;46221;51.178;5.900;2023-05-23T02:22:13;6.53;;;5.15;;
50337;SDS011;46221;51.178;5.900;2023-05-23T02:24:40;6.63;;;4.82;;
50337;SDS011;46221;51.178;5.900;2023-05-23T02:27:06;6.95;;;5.03;;
50337;SDS011;46221;51.178;5.900;2023-05-23T02:29:32;6.80;;;4.80;;
50337;SDS011;46221;51.178;5.900;2023-05-23T02:31:59;7.60;;;5.45;;
50337;SDS011;46221;51.178;5.900;2023-05-23T02:34:25;5.85;;;4.97;;
50337;SDS011;46221;51.178;5.900;2023-05-23T02:36:51;7.10;;;5.10;;
50337;SDS011;46221;51.178;5.900;2023-05-23T02:39:18;7.72;;;5.35;;
50337;SDS011;46221;51.178;5.900;2023-05-23T02:41:44;6.60;;;4.70;;
50337;SDS011;46221;51.178;5.900;2023-05-23T02:44:10;7.80;;;4.82;;
50337;SDS011;46221;51.178;5.900;2023-05-23T02:46:37;7.60;;;5.20;;
50337;SDS011;46221;51.178;5.900;2023-05-23T02:49:03;6.32;;;5.10;;
50337;SDS011;46221;51.178;5.900;2023-05-23T02:51:29;6.47;;;4.65;;
50337;SDS011;46221;51.178;5.900;2023-05-23T02:53:57;6.82;;;4.90;;
50337;SDS011;46221;51.178;5.900;2023-05-23T02:56:23;7.43;;;4.85;;
50337;SDS011;46221;51.178;5.900;2023-05-23T02:58:51;9.43;;;5.20;;
50337;SDS011;46221;51.178;5.900;2023-05-23T03:01:18;7.53;;;5.05;;
50337;SDS011;46221;51.178;5.900;2023-05-23T03:03:45;9.13;;;5.05;;
50337;SDS011;46221;51.178;5.900;2023-05-23T03:06:11;6.15;;;4.80;;
50337;SDS011;46221;51.178;5.900;2023-05-23T03:08:40;5.78;;;4.65;;
50337;SDS011;46221;51.178;5.900;2023-05-23T03:11:06;6.53;;;4.82;;
50337;SDS011;46221;51.178;5.900;2023-05-23T03:13:36;5.40;;;4.80;;
50337;SDS011;46221;51.178;5.900;2023-05-23T03:16:02;7.70;;;4.88;;
50337;SDS011;46221;51.178;5.900;2023-05-23T03:18:29;6.35;;;4.72;;
50337;SDS011;46221;51.178;5.900;2023-05-23T03:20:55;7.47;;;5.50;;
50337;SDS011;46221;51.178;5.900;2023-05-23T03:23:22;6.28;;;4.72;;
50337;SDS011;46221;51.178;5.900;2023-05-23T03:25:48;6.05;;;4.70;;
50337;SDS011;46221;51.178;5.900;2023-05-23T03:28:14;6.43;;;4.30;;
50337;SDS011;46221;51.178;5.900;2023-05-23T03:30:41;6.88;;;5.05;;
50337;SDS011;46221;51.178;5.900;2023-05-23T03:33:07;5.45;;;4.43;;
50337;SDS011;46221;51.178;5.900;2023-05-23T03:35:34;6.53;;;4.97;;
50337;SDS011;46221;51.178;5.900;2023-05-23T03:38:00;6.53;;;5.15;;
50337;SDS011;46221;51.178;5.900;2023-05-23T03:40:27;5.53;;;4.47;;
50337;SDS011;46221;51.178;5.900;2023-05-23T03:43:02;6.40;;;4.07;;
50337;SDS011;46221;51.178;5.900;2023-05-23T03:45:30;5.22;;;4.20;;
50337;SDS011;46221;51.178;5.900;2023-05-23T03:47:57;9.18;;;4.63;;
50337;SDS011;46221;51.178;5.900;2023-05-23T03:50:23;6.93;;;4.63;;
50337;SDS011;46221;51.178;5.900;2023-05-23T03:52:50;5.70;;;4.28;;
50337;SDS011;46221;51.178;5.900;2023-05-23T03:55:16;8.35;;;5.40;;
50337;SDS011;46221;51.178;5.900;2023-05-23T03:57:47;7.35;;;4.70;;
50337;SDS011;46221;51.178;5.900;2023-05-23T04:00:14;5.55;;;4.40;;
50337;SDS011;46221;51.178;5.900;2023-05-23T04:02:40;6.90;;;4.40;;
50337;SDS011;46221;51.178;5.900;2023-05-23T04:05:06;5.85;;;4.43;;
50337;SDS011;46221;51.178;5.900;2023-05-23T04:07:33;6.30;;;4.45;;
50337;SDS011;46221;51.178;5.900;2023-05-23T04:10:00;7.05;;;4.70;;
50337;SDS011;46221;51.178;5.900;2023-05-23T04:12:26;6.55;;;4.43;;
50337;SDS011;46221;51.178;5.900;2023-05-23T04:14:53;7.43;;;4.13;;
50337;SDS011;46221;51.178;5.900;2023-05-23T04:17:19;7.03;;;4.60;;
50337;SDS011;46221;51.178;5.900;2023-05-23T04:19:46;7.22;;;4.88;;
50337;SDS011;46221;51.178;5.900;2023-05-23T04:22:12;7.68;;;4.63;;
50337;SDS011;46221;51.178;5.900;2023-05-23T04:24:38;6.20;;;4.35;;
50337;SDS011;46221;51.178;5.900;2023-05-23T04:27:05;5.15;;;4.07;;
50337;SDS011;46221;51.178;5.900;2023-05-23T04:29:33;7.35;;;4.15;;
50337;SDS011;46221;51.178;5.900;2023-05-23T04:32:01;8.40;;;4.90;;
50337;SDS011;46221;51.178;5.900;2023-05-23T04:34:27;5.97;;;4.18;;
50337;SDS011;46221;51.178;5.900;2023-05-23T04:36:54;6.80;;;4.82;;
50337;SDS011;46221;51.178;5.900;2023-05-23T04:39:20;5.82;;;3.90;;
50337;SDS011;46221;51.178;5.900;2023-05-23T04:41:47;6.50;;;4.28;;
50337;SDS011;46221;51.178;5.900;2023-05-23T04:44:13;6.30;;;4.47;;
50337;SDS011;46221;51.178;5.900;2023-05-23T04:46:40;7.43;;;4.70;;
50337;SDS011;46221;51.178;5.900;2023-05-23T04:49:10;6.05;;;3.80;;
50337;SDS011;46221;51.178;5.900;2023-05-23T04:51:38;6.47;;;4.18;;
50337;SDS011;46221;51.178;5.900;2023-05-23T04:54:04;7.47;;;4.60;;
50337;SDS011;46221;51.178;5.900;2023-05-23T04:56:31;5.90;;;4.05;;
50337;SDS011;46221;51.178;5.900;2023-05-23T04:58:57;6.85;;;4.53;;
50337;SDS011;46221;51.178;5.900;2023-05-23T05:01:23;6.10;;;4.03;;
50337;SDS011;46221;51.178;5.900;2023-05-23T05:03:50;5.80;;;4.28;;
50337;SDS011;46221;51.178;5.900;2023-05-23T05:06:17;6.80;;;4.25;;
50337;SDS011;46221;51.178;5.900;2023-05-23T05:08:44;5.75;;;3.72;;
50337;SDS011;46221;51.178;5.900;2023-05-23T05:11:10;6.32;;;3.88;;
50337;SDS011;46221;51.178;5.900;2023-05-23T05:13:36;5.25;;;4.15;;
50337;SDS011;46221;51.178;5.900;2023-05-23T05:16:03;7.85;;;4.15;;
50337;SDS011;46221;51.178;5.900;2023-05-23T05:18:30;7.93;;;4.20;;
50337;SDS011;46221;51.178;5.900;2023-05-23T05:20:58;8.90;;;4.10;;
50337;SDS011;46221;51.178;5.900;2023-05-23T05:23:25;8.68;;;4.30;;
50337;SDS011;46221;51.178;5.900;2023-05-23T05:25:53;7.32;;;4.70;;
50337;SDS011;46221;51.178;5.900;2023-05-23T05:28:21;6.82;;;3.92;;
50337;SDS011;46221;51.178;5.900;2023-05-23T05:30:48;10.00;;;4.38;;
50337;SDS011;46221;51.178;5.900;2023-05-23T05:33:19;7.95;;;4.38;;
50337;SDS011;46221;51.178;5.900;2023-05-23T05:35:48;8.93;;;4.30;;
50337;SDS011;46221;51.178;5.900;2023-05-23T05:38:16;11.90;;;5.03;;
50337;SDS011;46221;51.178;5.900;2023-05-23T05:40:45;12.02;;;4.35;;
50337;SDS011;46221;51.178;5.900;2023-05-23T05:43:12;8.25;;;4.20;;
50337;SDS011;46221;51.178;5.900;2023-05-23T05:45:38;7.95;;;4.05;;
50337;SDS011;46221;51.178;5.900;2023-05-23T05:48:05;7.75;;;3.97;;
50337;SDS011;46221;51.178;5.900;2023-05-23T05:50:32;8.38;;;4.07;;
50337;SDS011;46221;51.178;5.900;2023-05-23T05:52:58;8.43;;;3.92;;
50337;SDS011;46221;51.178;5.900;2023-05-23T05:55:24;7.95;;;4.00;;
50337;SDS011;46221;51.178;5.900;2023-05-23T05:57:51;7.82;;;4.13;;
50337;SDS011;46221;51.178;5.900;2023-05-23T06:00:17;7.97;;;4.30;;
50337;SDS011;46221;51.178;5.900;2023-05-23T06:02:44;8.50;;;4.43;;
50337;SDS011;46221;51.178;5.900;2023-05-23T06:05:17;6.43;;;3.60;;
50337;SDS011;46221;51.178;5.900;2023-05-23T06:07:43;9.10;;;4.35;;
50337;SDS011;46221;51.178;5.900;2023-05-23T06:10:10;6.15;;;3.83;;
50337;SDS011;46221;51.178;5.900;2023-05-23T06:12:39;6.35;;;4.05;;
50337;SDS011;46221;51.178;5.900;2023-05-23T06:15:06;6.40;;;3.92;;
50337;SDS011;46221;51.178;5.900;2023-05-23T06:17:33;6.13;;;3.53;;
50337;SDS011;46221;51.178;5.900;2023-05-23T06:19:59;6.90;;;3.42;;
50337;SDS011;46221;51.178;5.900;2023-05-23T06:22:26;8.88;;;4.28;;
50337;SDS011;46221;51.178;5.900;2023-05-23T06:24:52;6.65;;;3.88;;
50337;SDS011;46221;51.178;5.900;2023-05-23T06:27:19;9.90;;;4.75;;
50337;SDS011;46221;51.178;5.900;2023-05-23T06:29:45;6.88;;;3.70;;
50337;SDS011;46221;51.178;5.900;2023-05-23T06:32:11;7.20;;;3.75;;
50337;SDS011;46221;51.178;5.900;2023-05-23T06:34:38;6.70;;;3.50;;
50337;SDS011;46221;51.178;5.900;2023-05-23T06:37:04;7.55;;;4.30;;
50337;SDS011;46221;51.178;5.900;2023-05-23T06:39:31;8.73;;;4.88;;
50337;SDS011;46221;51.178;5.900;2023-05-23T06:41:57;7.05;;;3.83;;
50337;SDS011;46221;51.178;5.900;2023-05-23T06:44:23;9.50;;;4.03;;
50337;SDS011;46221;51.178;5.900;2023-05-23T06:46:49;10.43;;;4.28;;
50337;SDS011;46221;51.178;5.900;2023-05-23T06:49:16;7.40;;;3.75;;
50337;SDS011;46221;51.178;5.900;2023-05-23T06:51:42;7.15;;;3.97;;
50337;SDS011;46221;51.178;5.900;2023-05-23T06:54:09;11.20;;;4.20;;
50337;SDS011;46221;51.178;5.900;2023-05-23T06:56:36;7.70;;;4.05;;
50337;SDS011;46221;51.178;5.900;2023-05-23T06:59:02;10.20;;;4.97;;
50337;SDS011;46221;51.178;5.900;2023-05-23T07:01:29;9.18;;;4.70;;
50337;SDS011;46221;51.178;5.900;2023-05-23T07:03:56;8.85;;;4.60;;
50337;SDS011;46221;51.178;5.900;2023-05-23T07:06:22;10.05;;;4.93;;
50337;SDS011;46221;51.178;5.900;2023-05-23T07:08:49;8.15;;;4.55;;
50337;SDS011;46221;51.178;5.900;2023-05-23T07:11:15;10.63;;;5.18;;
50337;SDS011;46221;51.178;5.900;2023-05-23T07:13:41;8.93;;;4.88;;
50337;SDS011;46221;51.178;5.900;2023-05-23T07:16:08;12.25;;;5.63;;
50337;SDS011;46221;51.178;5.900;2023-05-23T07:18:34;9.02;;;4.90;;
50337;SDS011;46221;51.178;5.900;2023-05-23T07:21:03;12.45;;;5.20;;
50337;SDS011;46221;51.178;5.900;2023-05-23T07:23:33;9.40;;;4.95;;
50337;SDS011;46221;51.178;5.900;2023-05-23T07:26:00;9.38;;;5.03;;
50337;SDS011;46221;51.178;5.900;2023-05-23T07:28:28;9.45;;;5.60;;
50337;SDS011;46221;51.178;5.900;2023-05-23T07:30:55;9.70;;;5.40;;
50337;SDS011;46221;51.178;5.900;2023-05-23T07:33:23;9.32;;;5.20;;
50337;SDS011;46221;51.178;5.900;2023-05-23T07:35:50;12.82;;;5.50;;
50337;SDS011;46221;51.178;5.900;2023-05-23T07:38:17;9.95;;;4.95;;
50337;SDS011;46221;51.178;5.900;2023-05-23T07:40:43;9.88;;;4.65;;
50337;SDS011;46221;51.178;5.900;2023-05-23T07:43:20;8.52;;;5.10;;
50337;SDS011;46221;51.178;5.900;2023-05-23T07:45:47;12.27;;;5.10;;
50337;SDS011;46221;51.178;5.900;2023-05-23T07:48:13;9.65;;;4.70;;
50337;SDS011;46221;51.178;5.900;2023-05-23T07:50:40;11.07;;;5.30;;
50337;SDS011;46221;51.178;5.900;2023-05-23T07:53:06;13.15;;;4.95;;
50337;SDS011;46221;51.178;5.900;2023-05-23T07:55:33;10.40;;;4.90;;
50337;SDS011;46221;51.178;5.900;2023-05-23T07:57:59;12.27;;;6.03;;
50337;SDS011;46221;51.178;5.900;2023-05-23T08:00:26;9.75;;;5.05;;
50337;SDS011;46221;51.178;5.900;2023-05-23T08:02:53;11.60;;;4.65;;
50337;SDS011;46221;51.178;5.900;2023-05-23T08:05:19;9.52;;;5.05;;
50337;SDS011;46221;51.178;5.900;2023-05-23T08:07:47;11.50;;;4.82;;
50337;SDS011;46221;51.178;5.900;2023-05-23T08:10:14;13.75;;;5.07;;
50337;SDS011;46221;51.178;5.900;2023-05-23T08:12:40;13.13;;;4.88;;
50337;SDS011;46221;51.178;5.900;2023-05-23T08:15:07;8.05;;;4.35;;
50337;SDS011;46221;51.178;5.900;2023-05-23T08:17:34;11.52;;;5.03;;
50337;SDS011;46221;51.178;5.900;2023-05-23T08:20:00;14.15;;;5.30;;
50337;SDS011;46221;51.178;5.900;2023-05-23T08:22:27;11.65;;;4.57;;
50337;SDS011;46221;51.178;5.900;2023-05-23T08:24:53;10.80;;;4.55;;
50337;SDS011;46221;51.178;5.900;2023-05-23T08:27:20;11.98;;;4.53;;
50337;SDS011;46221;51.178;5.900;2023-05-23T08:29:47;11.85;;;4.65;;
50337;SDS011;46221;51.178;5.900;2023-05-23T08:32:13;10.77;;;4.32;;
50337;SDS011;46221;51.178;5.900;2023-05-23T08:34:39;9.27;;;4.20;;
50337;SDS011;46221;51.178;5.900;2023-05-23T08:37:07;12.43;;;4.72;;
50337;SDS011;46221;51.178;5.900;2023-05-23T08:39:33;11.55;;;4.93;;
50337;SDS011;46221;51.178;5.900;2023-05-23T08:41:59;10.25;;;4.57;;
50337;SDS011;46221;51.178;5.900;2023-05-23T08:44:26;11.82;;;4.50;;
50337;SDS011;46221;51.178;5.900;2023-05-23T08:46:52;11.73;;;4.78;;
50337;SDS011;46221;51.178;5.900;2023-05-23T08:49:19;11.18;;;4.63;;
50337;SDS011;46221;51.178;5.900;2023-05-23T08:51:50;13.82;;;4.57;;
50337;SDS011;46221;51.178;5.900;2023-05-23T08:54:17;11.70;;;4.70;;
50337;SDS011;46221;51.178;5.900;2023-05-23T08:56:44;13.27;;;4.78;;
50337;SDS011;46221;51.178;5.900;2023-05-23T08:59:10;10.27;;;4.65;;
50337;SDS011;46221;51.178;5.900;2023-05-23T09:01:37;10.80;;;4.28;;
50337;SDS011;46221;51.178;5.900;2023-05-23T09:04:05;11.85;;;4.32;;
50337;SDS011;46221;51.178;5.900;2023-05-23T09:06:32;11.20;;;4.55;;
50337;SDS011;46221;51.178;5.900;2023-05-23T09:08:58;10.15;;;4.55;;
50337;SDS011;46221;51.178;5.900;2023-05-23T09:11:25;13.73;;;5.15;;
50337;SDS011;46221;51.178;5.900;2023-05-23T09:13:53;10.18;;;4.25;;
50337;SDS011;46221;51.178;5.900;2023-05-23T09:16:19;9.60;;;4.55;;
50337;SDS011;46221;51.178;5.900;2023-05-23T09:18:46;10.43;;;4.72;;
50337;SDS011;46221;51.178;5.900;2023-05-23T09:21:13;8.57;;;4.80;;
50337;SDS011;46221;51.178;5.900;2023-05-23T09:23:39;8.65;;;3.90;;
50337;SDS011;46221;51.178;5.900;2023-05-23T09:26:07;9.70;;;3.88;;
50337;SDS011;46221;51.178;5.900;2023-05-23T09:28:34;7.88;;;3.88;;
50337;SDS011;46221;51.178;5.900;2023-05-23T09:31:01;11.55;;;4.65;;
50337;SDS011;46221;51.178;5.900;2023-05-23T09:33:29;7.72;;;4.28;;
50337;SDS011;46221;51.178;5.900;2023-05-23T09:35:58;9.13;;;4.18;;
50337;SDS011;46221;51.178;5.900;2023-05-23T09:38:24;10.45;;;4.20;;
50337;SDS011;46221;51.178;5.900;2023-05-23T09:40:53;9.02;;;4.00;;
50337;SDS011;46221;51.178;5.900;2023-05-23T09:43:21;9.88;;;4.43;;
50337;SDS011;46221;51.178;5.900;2023-05-23T09:45:47;8.68;;;4.55;;
50337;SDS011;46221;51.178;5.900;2023-05-23T09:48:13;9.95;;;4.00;;
50337;SDS011;46221;51.178;5.900;2023-05-23T09:50:40;9.07;;;4.43;;
50337;SDS011;46221;51.178;5.900;2023-05-23T09:53:07;10.07;;;5.00;;
50337;SDS011;46221;51.178;5.900;2023-05-23T09:55:33;10.35;;;4.10;;
50337;SDS011;46221;51.178;5.900;2023-05-23T09:57:59;11.00;;;4.28;;
50337;SDS011;46221;51.178;5.900;2023-05-23T10:00:26;8.40;;;3.90;;
50337;SDS011;46221;51.178;5.900;2023-05-23T10:03:04;8.57;;;4.20;;
50337;SDS011;46221;51.178;5.900;2023-05-23T10:08:00;7.35;;;3.97;;
50337;SDS011;46221;51.178;5.900;2023-05-23T10:10:29;7.63;;;3.70;;
50337;SDS011;46221;51.178;5.900;2023-05-23T10:12:56;7.10;;;3.70;;
50337;SDS011;46221;51.178;5.900;2023-05-23T10:15:23;8.48;;;3.78;;
50337;SDS011;46221;51.178;5.900;2023-05-23T10:17:56;7.10;;;3.80;;
50337;SDS011;46221;51.178;5.900;2023-05-23T10:20:27;8.38;;;3.88;;
50337;SDS011;46221;51.178;5.900;2023-05-23T10:22:58;9.55;;;4.00;;
50337;SDS011;46221;51.178;5.900;2023-05-23T10:25:24;8.13;;;3.97;;
50337;SDS011;46221;51.178;5.900;2023-05-23T10:27:53;6.57;;;3.25;;
50337;SDS011;46221;51.178;5.900;2023-05-23T10:30:27;9.07;;;3.90;;
50337;SDS011;46221;51.178;5.900;2023-05-23T10:32:54;6.13;;;3.22;;
50337;SDS011;46221;51.178;5.900;2023-05-23T10:41:33;7.22;;;3.63;;
50337;SDS011;46221;51.178;5.900;2023-05-23T10:43:30;5.50;;;3.20;;
50337;SDS011;46221;51.178;5.900;2023-05-23T10:45:59;6.60;;;3.13;;
50337;SDS011;46221;51.178;5.900;2023-05-23T10:48:33;5.88;;;3.63;;
50337;SDS011;46221;51.178;5.900;2023-05-23T10:51:06;5.07;;;2.90;;
50337;SDS011;46221;51.178;5.900;2023-05-23T10:53:34;6.85;;;2.92;;
50337;SDS011;46221;51.178;5.900;2023-05-23T10:56:03;6.65;;;3.22;;
50337;SDS011;46221;51.178;5.900;2023-05-23T10:58:29;6.15;;;2.80;;
50337;SDS011;46221;51.178;5.900;2023-05-23T11:01:00;6.22;;;2.80;;
50337;SDS011;46221;51.178;5.900;2023-05-23T11:03:30;4.68;;;2.90;;
50337;SDS011;46221;51.178;5.900;2023-05-23T11:06:01;8.35;;;3.45;;
50337;SDS011;46221;51.178;5.900;2023-05-23T11:08:34;5.88;;;2.70;;
50337;SDS011;46221;51.178;5.900;2023-05-23T11:11:13;6.25;;;2.72;;
50337;SDS011;46221;51.178;5.900;2023-05-23T11:13:53;7.68;;;2.85;;
50337;SDS011;46221;51.178;5.900;2023-05-23T11:21:38;5.82;;;2.58;;
50337;SDS011;46221;51.178;5.900;2023-05-23T11:24:05;8.73;;;2.65;;
50337;SDS011;46221;51.178;5.900;2023-05-23T11:26:31;6.68;;;2.55;;
50337;SDS011;46221;51.178;5.900;2023-05-23T11:28:58;6.97;;;2.60;;
50337;SDS011;46221;51.178;5.900;2023-05-23T11:31:25;5.68;;;2.50;;
50337;SDS011;46221;51.178;5.900;2023-05-23T11:33:52;8.82;;;3.28;;
50337;SDS011;46221;51.178;5.900;2023-05-23T11:36:20;7.57;;;2.85;;
50337;SDS011;46221;51.178;5.900;2023-05-23T11:38:46;5.43;;;2.40;;
50337;SDS011;46221;51.178;5.900;2023-05-23T11:41:13;7.18;;;2.60;;
50337;SDS011;46221;51.178;5.900;2023-05-23T11:43:48;6.72;;;2.40;;
50337;SDS011;46221;51.178;5.900;2023-05-23T11:46:14;7.35;;;2.70;;
50337;SDS011;46221;51.178;5.900;2023-05-23T11:48:44;6.07;;;2.75;;
50337;SDS011;46221;51.178;5.900;2023-05-23T11:51:11;7.07;;;2.80;;
50337;SDS011;46221;51.178;5.900;2023-05-23T11:53:38;7.15;;;2.50;;
50337;SDS011;46221;51.178;5.900;2023-05-23T11:56:04;8.43;;;2.50;;
50337;SDS011;46221;51.178;5.900;2023-05-23T11:58:37;7.70;;;2.60;;
50337;SDS011;46221;51.178;5.900;2023-05-23T12:01:05;5.70;;;2.40;;
50337;SDS011;46221;51.178;5.900;2023-05-23T12:03:47;7.85;;;3.05;;
50337;SDS011;46221;51.178;5.900;2023-05-23T12:06:18;8.93;;;2.80;;
50337;SDS011;46221;51.178;5.900;2023-05-23T12:08:46;6.63;;;2.40;;
50337;SDS011;46221;51.178;5.900;2023-05-23T12:11:12;5.07;;;2.13;;
50337;SDS011;46221;51.178;5.900;2023-05-23T12:13:39;7.60;;;3.00;;
50337;SDS011;46221;51.178;5.900;2023-05-23T12:16:06;8.93;;;2.65;;
50337;SDS011;46221;51.178;5.900;2023-05-23T12:18:33;8.63;;;3.38;;
50337;SDS011;46221;51.178;5.900;2023-05-23T12:21:01;7.10;;;2.58;;
50337;SDS011;46221;51.178;5.900;2023-05-23T12:23:28;7.97;;;2.85;;
50337;SDS011;46221;51.178;5.900;2023-05-23T12:25:57;6.97;;;2.83;;
50337;SDS011;46221;51.178;5.900;2023-05-23T12:28:36;8.02;;;2.80;;
50337;SDS011;46221;51.178;5.900;2023-05-23T12:31:11;5.28;;;2.20;;
50337;SDS011;46221;51.178;5.900;2023-05-23T12:33:39;5.80;;;2.38;;
50337;SDS011;46221;51.178;5.900;2023-05-23T12:36:05;6.93;;;2.35;;
50337;SDS011;46221;51.178;5.900;2023-05-23T12:38:35;7.25;;;2.10;;
50337;SDS011;46221;51.178;5.900;2023-05-23T12:41:07;6.88;;;2.63;;
50337;SDS011;46221;51.178;5.900;2023-05-23T12:43:36;5.60;;;2.25;;
50337;SDS011;46221;51.178;5.900;2023-05-23T12:46:02;6.35;;;2.53;;
50337;SDS011;46221;51.178;5.900;2023-05-23T12:48:28;8.02;;;2.35;;
50337;SDS011;46221;51.178;5.900;2023-05-23T12:50:55;6.65;;;2.63;;
50337;SDS011;46221;51.178;5.900;2023-05-23T12:53:21;7.15;;;2.13;;
50337;SDS011;46221;51.178;5.900;2023-05-23T12:55:50;5.32;;;2.33;;
50337;SDS011;46221;51.178;5.900;2023-05-23T12:58:17;5.65;;;2.17;;
50337;SDS011;46221;51.178;5.900;2023-05-23T13:00:43;9.55;;;3.15;;
50337;SDS011;46221;51.178;5.900;2023-05-23T13:03:09;7.82;;;2.22;;
50337;SDS011;46221;51.178;5.900;2023-05-23T13:05:37;5.07;;;2.25;;
50337;SDS011;46221;51.178;5.900;2023-05-23T13:08:03;6.43;;;2.35;;
50337;SDS011;46221;51.178;5.900;2023-05-23T13:10:30;8.65;;;2.47;;
50337;SDS011;46221;51.178;5.900;2023-05-23T13:12:57;8.35;;;2.65;;
50337;SDS011;46221;51.178;5.900;2023-05-23T13:15:23;8.50;;;2.70;;
50337;SDS011;46221;51.178;5.900;2023-05-23T13:17:50;6.18;;;2.53;;
50337;SDS011;46221;51.178;5.900;2023-05-23T13:20:16;8.95;;;2.47;;
50337;SDS011;46221;51.178;5.900;2023-05-23T13:22:43;8.25;;;3.20;;
50337;SDS011;46221;51.178;5.900;2023-05-23T13:25:09;7.53;;;2.80;;
50337;SDS011;46221;51.178;5.900;2023-05-23T13:27:36;6.75;;;2.55;;
50337;SDS011;46221;51.178;5.900;2023-05-23T13:30:03;8.25;;;2.80;;
50337;SDS011;46221;51.178;5.900;2023-05-23T13:32:29;9.30;;;2.20;;
50337;SDS011;46221;51.178;5.900;2023-05-23T13:34:56;7.68;;;2.22;;
50337;SDS011;46221;51.178;5.900;2023-05-23T13:37:22;8.73;;;2.78;;
50337;SDS011;46221;51.178;5.900;2023-05-23T13:39:49;6.32;;;2.17;;
50337;SDS011;46221;51.178;5.900;2023-05-23T13:42:15;10.40;;;2.63;;
50337;SDS011;46221;51.178;5.900;2023-05-23T13:44:41;6.75;;;2.40;;
50337;SDS011;46221;51.178;5.900;2023-05-23T13:47:08;7.50;;;2.50;;
50337;SDS011;46221;51.178;5.900;2023-05-23T13:49:38;8.75;;;2.83;;
50337;SDS011;46221;51.178;5.900;2023-05-23T13:52:04;9.15;;;2.67;;
50337;SDS011;46221;51.178;5.900;2023-05-23T13:54:31;8.98;;;3.03;;
50337;SDS011;46221;51.178;5.900;2023-05-23T13:56:57;5.43;;;2.20;;
50337;SDS011;46221;51.178;5.900;2023-05-23T13:59:25;6.90;;;2.42;;
50337;SDS011;46221;51.178;5.900;2023-05-23T14:01:51;7.28;;;2.40;;
50337;SDS011;46221;51.178;5.900;2023-05-23T14:04:18;8.05;;;2.60;;
50337;SDS011;46221;51.178;5.900;2023-05-23T14:06:44;8.05;;;2.53;;
50337;SDS011;46221;51.178;5.900;2023-05-23T14:09:11;6.90;;;2.22;;
50337;SDS011;46221;51.178;5.900;2023-05-23T14:11:37;6.25;;;2.35;;
50337;SDS011;46221;51.178;5.900;2023-05-23T14:14:04;5.35;;;2.58;;
50337;SDS011;46221;51.178;5.900;2023-05-23T14:16:30;7.85;;;2.70;;
50337;SDS011;46221;51.178;5.900;2023-05-23T14:18:57;7.07;;;2.33;;
50337;SDS011;46221;51.178;5.900;2023-05-23T14:21:23;7.05;;;2.50;;
50337;SDS011;46221;51.178;5.900;2023-05-23T14:23:50;7.43;;;2.33;;
50337;SDS011;46221;51.178;5.900;2023-05-23T14:26:16;5.05;;;2.30;;
50337;SDS011;46221;51.178;5.900;2023-05-23T14:28:42;7.78;;;2.53;;
50337;SDS011;46221;51.178;5.900;2023-05-23T14:31:09;10.13;;;2.55;;
50337;SDS011;46221;51.178;5.900;2023-05-23T14:33:35;11.20;;;2.80;;
50337;SDS011;46221;51.178;5.900;2023-05-23T14:36:02;8.75;;;2.30;;
50337;SDS011;46221;51.178;5.900;2023-05-23T14:38:29;9.13;;;3.13;;
50337;SDS011;46221;51.178;5.900;2023-05-23T14:40:55;5.18;;;2.17;;
50337;SDS011;46221;51.178;5.900;2023-05-23T14:43:22;6.03;;;2.22;;
50337;SDS011;46221;51.178;5.900;2023-05-23T14:45:48;6.03;;;1.92;;
50337;SDS011;46221;51.178;5.900;2023-05-23T14:48:14;6.20;;;2.17;;
50337;SDS011;46221;51.178;5.900;2023-05-23T14:50:41;25.65;;;3.72;;
50337;SDS011;46221;51.178;5.900;2023-05-23T14:53:07;5.72;;;1.88;;
50337;SDS011;46221;51.178;5.900;2023-05-23T14:55:34;5.88;;;2.10;;
50337;SDS011;46221;51.178;5.900;2023-05-23T14:58:00;5.95;;;2.20;;
50337;SDS011;46221;51.178;5.900;2023-05-23T15:00:28;4.78;;;1.83;;
50337;SDS011;46221;51.178;5.900;2023-05-23T15:02:55;5.85;;;1.95;;
50337;SDS011;46221;51.178;5.900;2023-05-23T15:05:21;5.55;;;1.90;;